createdAt,value
2023-02-12T00:00:58.755Z,1.00
2023-02-12T00:03:26.587Z,1.00
2023-02-12T00:05:54.105Z,1.00
2023-02-12T00:08:22.126Z,1.00
2023-02-12T00:10:51.719Z,1.00
2023-02-12T00:13:22.742Z,1.00
2023-02-12T00:15:57.738Z,1.00
2023-02-12T00:18:25.074Z,1.00
2023-02-12T00:20:52.079Z,1.00
2023-02-12T00:23:19.100Z,1.00
2023-02-12T00:25:49.591Z,1.00
2023-02-12T00:28:21.193Z,1.00
2023-02-12T00:30:51.162Z,1.00
2023-02-12T00:33:18.342Z,1.00
2023-02-12T00:35:57.175Z,1.00
2023-02-12T00:38:24.688Z,1.00
2023-02-12T00:40:51.807Z,1.00
2023-02-12T00:43:19.418Z,1.00
2023-02-12T00:45:47.882Z,1.00
2023-02-12T00:48:16.212Z,1.00
2023-02-12T00:50:53.190Z,1.00
2023-02-12T00:53:24.154Z,1.00
2023-02-12T00:55:51.562Z,1.00
2023-02-12T00:58:19.153Z,1.00
2023-02-12T01:00:46.711Z,1.00
2023-02-12T01:03:16.336Z,1.00
2023-02-12T01:05:46.045Z,1.00
2023-02-12T01:08:16.912Z,1.00
2023-02-12T01:10:58.086Z,1.00
2023-02-12T01:13:26.490Z,1.00
2023-02-12T01:16:38.656Z,1.00
2023-02-12T01:19:08.643Z,1.00
2023-02-12T01:21:36.530Z,1.00
2023-02-12T01:24:04.002Z,1.00
2023-02-12T01:26:33.943Z,1.00
2023-02-12T01:29:04.484Z,1.00
2023-02-12T01:31:36.174Z,1.00
2023-02-12T01:34:04.969Z,1.00
2023-02-12T01:36:34.176Z,1.00
2023-02-12T01:39:03.134Z,1.00
2023-02-12T01:41:34.700Z,1.00
2023-02-12T01:44:25.111Z,1.00
2023-02-12T01:46:58.896Z,1.00
2023-02-12T01:49:40.623Z,1.00
2023-02-12T01:52:10.668Z,1.00
2023-02-12T01:54:38.615Z,1.00
2023-02-12T01:57:07.374Z,1.00
2023-02-12T01:59:36.727Z,1.00
2023-02-12T02:02:05.396Z,1.00
2023-02-12T02:04:40.232Z,1.00
2023-02-12T02:07:13.087Z,1.00
2023-02-12T02:09:44.356Z,1.00
2023-02-12T02:12:37.240Z,1.00
2023-02-12T02:15:06.347Z,1.00
2023-02-12T02:17:58.419Z,1.00
2023-02-12T02:20:46.876Z,1.00
2023-02-12T02:23:29.605Z,1.00
2023-02-12T02:26:22.383Z,1.00
2023-02-12T02:29:07.741Z,1.00
2023-02-12T02:31:54.538Z,1.00
2023-02-12T02:34:29.548Z,1.00
2023-02-12T02:37:20.043Z,1.00
2023-02-12T02:39:59.881Z,1.00
2023-02-12T02:42:41.364Z,1.00
2023-02-12T02:45:43.766Z,1.00
2023-02-12T02:48:18.357Z,1.00
2023-02-12T02:50:53.148Z,1.00
2023-02-12T02:53:30.114Z,1.00
2023-02-12T02:56:00.050Z,1.00
2023-02-12T02:58:39.369Z,1.00
2023-02-12T03:01:41.983Z,1.00
2023-02-12T03:04:28.006Z,1.00
2023-02-12T03:06:58.550Z,1.00
2023-02-12T03:09:36.225Z,1.00
2023-02-12T03:12:09.381Z,1.00
2023-02-12T03:14:47.578Z,1.00
2023-02-12T03:17:20.984Z,1.00
2023-02-12T03:19:55.249Z,1.00
2023-02-12T03:22:31.316Z,1.00
2023-02-12T03:25:09.812Z,1.00
2023-02-12T03:27:43.797Z,1.00
2023-02-12T03:30:11.920Z,1.00
2023-02-12T03:32:49.332Z,1.00
2023-02-12T03:35:16.445Z,1.00
2023-02-12T03:38:02.043Z,1.00
2023-02-12T03:40:37.550Z,1.00
2023-02-12T03:43:17.937Z,1.00
2023-02-12T03:45:56.162Z,1.00
2023-02-12T03:48:45.561Z,1.00
2023-02-12T03:51:38.396Z,1.00
2023-02-12T03:54:07.469Z,1.00
2023-02-12T03:56:49.393Z,1.00
2023-02-12T03:59:16.523Z,1.00
2023-02-12T04:01:43.754Z,1.00
2023-02-12T04:04:11.534Z,1.00
2023-02-12T04:06:40.005Z,1.00
2023-02-12T04:09:11.437Z,1.00
2023-02-12T04:11:59.596Z,1.00
2023-02-12T04:14:46.295Z,1.00
2023-02-12T04:17:32.813Z,1.00
2023-02-12T04:20:09.395Z,1.00
2023-02-12T04:23:08.605Z,1.00
2023-02-12T04:26:05.878Z,1.00
2023-02-12T04:28:56.093Z,1.00
2023-02-12T04:31:43.457Z,1.00
2023-02-12T04:34:18.302Z,1.00
2023-02-12T04:36:59.420Z,1.00
2023-02-12T04:39:32.280Z,1.00
2023-02-12T04:42:01.571Z,1.00
2023-02-12T04:44:32.144Z,1.00
2023-02-12T04:46:59.255Z,1.80
2023-02-12T04:49:27.226Z,1.00
2023-02-12T04:52:25.604Z,2.50
2023-02-12T04:54:54.912Z,1.00
2023-02-12T04:57:21.847Z,1.00
2023-02-12T04:59:50.126Z,1.00
2023-02-12T05:02:22.529Z,4.10
2023-02-12T05:04:51.075Z,4.10
2023-02-12T05:07:18.219Z,1.00
2023-02-12T05:09:45.467Z,1.00
2023-02-12T05:12:12.888Z,5.00
2023-02-12T05:14:41.756Z,9.30
2023-02-12T05:17:09.323Z,7.80
2023-02-12T05:19:36.362Z,2.30
2023-02-12T05:22:03.454Z,13.00
2023-02-12T05:24:30.428Z,16.00
2023-02-12T05:27:47.312Z,15.80
2023-02-12T05:30:14.966Z,25.10
2023-02-12T05:32:42.126Z,38.20
2023-02-12T05:35:09.457Z,38.70
2023-02-12T05:37:36.971Z,35.70
2023-02-12T05:40:05.763Z,30.70
2023-02-12T05:42:32.758Z,37.80
2023-02-12T05:44:59.716Z,21.90
2023-02-12T05:47:26.932Z,30.10
2023-02-12T05:50:24.076Z,25.80
2023-02-12T05:53:07.971Z,28.80
2023-02-12T05:55:34.975Z,28.30
2023-02-12T05:58:01.953Z,26.40
2023-02-12T06:00:45.812Z,29.50
2023-02-12T06:03:12.950Z,22.90
2023-02-12T06:05:39.908Z,28.10
2023-02-12T06:08:07.217Z,24.80
2023-02-12T06:10:34.179Z,28.50
2023-02-12T06:13:01.160Z,24.00
2023-02-12T06:15:28.138Z,28.10
2023-02-12T06:17:55.034Z,29.50
2023-02-12T06:20:22.180Z,35.80
2023-02-12T06:22:49.190Z,35.60
2023-02-12T06:25:16.365Z,31.00
2023-02-12T06:27:43.249Z,30.60
2023-02-12T06:30:11.016Z,33.40
2023-02-12T06:32:39.404Z,32.70
2023-02-12T06:35:06.964Z,41.40
2023-02-12T06:37:37.417Z,40.40
2023-02-12T06:40:05.019Z,36.60
2023-02-12T06:42:33.189Z,41.40
2023-02-12T06:45:00.375Z,47.30
2023-02-12T06:47:27.903Z,47.20
2023-02-12T06:49:54.942Z,46.90
2023-02-12T06:52:23.407Z,46.40
2023-02-12T06:54:50.840Z,69.40
2023-02-12T06:57:21.541Z,50.40
2023-02-12T06:59:49.845Z,67.10
2023-02-12T07:02:17.005Z,72.20
2023-02-12T07:04:43.973Z,72.50
2023-02-12T07:07:11.160Z,69.60
2023-02-12T07:09:38.674Z,60.50
2023-02-12T07:12:06.061Z,42.10
2023-02-12T07:14:33.123Z,37.90
2023-02-12T07:17:03.907Z,53.00
2023-02-12T07:19:30.975Z,75.20
2023-02-12T07:21:57.979Z,44.30
2023-02-12T07:24:24.974Z,37.50
2023-02-12T07:26:51.931Z,25.60
2023-02-12T07:29:18.915Z,1.00
2023-02-12T07:31:47.422Z,1.00
2023-02-12T07:34:14.694Z,1.00
2023-02-12T07:36:42.521Z,1.00
2023-02-12T07:39:12.124Z,1.00
2023-02-12T07:41:39.032Z,1.00
2023-02-12T07:44:10.132Z,1.00
2023-02-12T07:46:42.927Z,1.00
2023-02-12T07:49:14.439Z,1.00
2023-02-12T07:51:42.039Z,1.00
2023-02-12T07:54:09.883Z,1.00
2023-02-12T07:56:39.169Z,1.00
2023-02-12T07:59:11.702Z,1.00
2023-02-12T08:01:45.758Z,1.00
2023-02-12T08:04:15.250Z,1.00
2023-02-12T08:06:45.408Z,1.00
2023-02-12T08:09:17.192Z,1.00
2023-02-12T08:11:44.764Z,1.00
2023-02-12T08:14:22.152Z,1.00
2023-02-12T08:16:52.117Z,1.00
2023-02-12T08:19:26.172Z,1.00
2023-02-12T08:22:16.414Z,1.00
2023-02-12T08:25:09.371Z,1.00
2023-02-12T08:27:55.931Z,1.00
2023-02-12T08:30:49.898Z,1.00
2023-02-12T08:36:40.213Z,1.00
2023-02-12T08:39:08.772Z,1.00
2023-02-12T08:41:35.916Z,1.00
2023-02-12T08:44:06.213Z,1.00
2023-02-12T08:46:43.744Z,1.00
2023-02-12T08:49:16.515Z,1.00
2023-02-12T08:51:48.980Z,1.00
2023-02-12T08:54:19.026Z,1.00
2023-02-12T08:56:46.301Z,1.00
2023-02-12T08:59:17.679Z,1.00
2023-02-12T09:01:45.277Z,1.00
2023-02-12T09:04:18.408Z,1.00
2023-02-12T09:06:46.688Z,1.00
2023-02-12T09:09:14.987Z,1.00
2023-02-12T09:11:42.263Z,99.90
2023-02-12T09:14:17.705Z,99.90
2023-02-12T09:17:01.711Z,99.90
2023-02-12T09:19:30.833Z,99.90
2023-02-12T09:22:02.382Z,99.90
2023-02-12T09:24:29.709Z,99.90
2023-02-12T09:26:57.404Z,99.90
2023-02-12T09:29:25.098Z,99.90
2023-02-12T09:31:58.091Z,99.90
2023-02-12T09:34:25.204Z,99.90
2023-02-12T09:36:52.564Z,99.90
2023-02-12T09:39:19.682Z,99.90
2023-02-12T09:42:06.646Z,99.90
2023-02-12T09:45:00.104Z,99.90
2023-02-12T09:48:09.243Z,99.90
2023-02-12T09:50:56.790Z,99.90
2023-02-12T09:53:29.311Z,99.90
2023-02-12T09:58:45.762Z,99.90
2023-02-12T10:01:23.732Z,99.90
2023-02-12T10:03:53.121Z,99.90
2023-02-12T10:06:31.858Z,99.90
2023-02-12T10:09:40.650Z,99.90
2023-02-12T10:12:59.514Z,99.90
2023-02-12T10:19:47.286Z,99.90
2023-02-12T10:23:03.662Z,99.90
2023-02-12T10:28:49.833Z,99.90
2023-02-12T10:34:44.549Z,99.90
2023-02-12T10:43:49.989Z,99.90
2023-02-12T10:46:21.148Z,99.90
2023-02-12T10:48:59.530Z,99.90
2023-02-12T10:52:20.271Z,99.90
2023-02-12T11:04:23.276Z,99.90
2023-02-12T11:40:00.374Z,99.90
2023-02-12T11:59:45.259Z,99.90
2023-02-12T12:02:39.728Z,99.90
2023-02-12T12:35:09.807Z,99.90
2023-02-12T12:38:38.743Z,99.90
2023-02-12T12:48:24.625Z,99.90
2023-02-12T12:51:37.600Z,99.90
2023-02-12T13:06:30.967Z,99.90
2023-02-12T13:09:32.388Z,99.90
2023-02-12T13:16:25.928Z,99.90
2023-02-12T13:19:34.435Z,99.90
2023-02-12T13:22:18.123Z,99.90
2023-02-12T13:48:40.286Z,99.90
2023-02-12T13:59:01.052Z,99.90
2023-02-12T14:02:50.374Z,99.90
2023-02-12T14:05:34.704Z,99.90
2023-02-12T14:11:21.136Z,99.90
2023-02-12T14:16:58.051Z,99.90
2023-02-12T14:20:06.625Z,99.90
2023-02-12T14:23:07.521Z,99.90
2023-02-12T14:26:15.379Z,99.90
2023-02-12T14:32:11.257Z,99.90
2023-02-12T14:41:43.459Z,99.90
2023-02-12T15:05:33.468Z,99.90
2023-02-12T15:18:17.388Z,99.90
2023-02-12T15:21:30.471Z,99.90
2023-02-12T15:24:08.264Z,99.90
2023-02-12T15:26:53.540Z,99.90
2023-02-12T15:29:30.420Z,99.90
2023-02-12T15:32:09.461Z,99.90
2023-02-12T15:34:45.575Z,99.90
2023-02-12T15:41:23.392Z,99.90
2023-02-12T15:50:28.050Z,99.90
2023-02-12T15:53:01.806Z,99.90
2023-02-12T16:09:49.005Z,99.90
2023-02-12T16:12:22.842Z,99.90
2023-02-12T16:14:54.993Z,99.90
2023-02-12T16:17:54.078Z,99.90
2023-02-12T18:28:35.294Z,99.90
2023-02-12T18:34:05.487Z,99.90
2023-02-12T18:36:33.649Z,99.90
2023-02-12T18:39:04.308Z,99.90
2023-02-12T18:41:37.739Z,99.90
2023-02-12T18:44:05.671Z,99.90
2023-02-12T18:46:33.327Z,99.90
2023-02-12T18:49:01.945Z,99.90
2023-02-12T18:51:40.413Z,99.90
2023-02-12T18:54:15.701Z,99.90
2023-02-12T18:56:49.200Z,99.90
2023-02-12T18:59:21.177Z,99.90
2023-02-12T19:02:02.164Z,99.90
2023-02-12T19:04:44.970Z,99.90
2023-02-12T19:07:18.198Z,99.90
2023-02-12T19:09:58.421Z,99.90
2023-02-12T19:12:35.290Z,99.90
2023-02-12T19:15:19.003Z,99.90
2023-02-12T19:50:43.830Z,99.90
2023-02-12T20:23:29.830Z,99.90
2023-02-12T20:26:09.734Z,99.90
2023-02-12T20:28:46.713Z,99.90
2023-02-12T20:31:26.408Z,99.90
2023-02-12T20:33:59.714Z,99.90
2023-02-12T20:36:47.298Z,99.90
2023-02-12T20:39:37.989Z,99.90
2023-02-12T20:42:06.671Z,99.90
2023-02-12T20:44:35.710Z,99.90
2023-02-12T20:47:12.762Z,99.90
2023-02-12T20:49:41.311Z,99.90
2023-02-12T20:52:08.520Z,99.90
2023-02-12T20:54:39.142Z,99.90
2023-02-12T20:57:07.884Z,99.90
2023-02-12T20:59:38.473Z,99.90
2023-02-12T21:02:07.142Z,99.90
2023-02-12T21:04:45.545Z,99.90
2023-02-12T21:07:14.353Z,99.90
2023-02-12T21:09:45.833Z,99.90
2023-02-12T21:12:19.694Z,99.90
2023-02-12T21:14:49.626Z,99.90
2023-02-12T21:17:19.734Z,99.90
2023-02-12T21:19:52.257Z,99.90
2023-02-12T21:22:21.465Z,99.90
2023-02-12T21:24:48.925Z,99.90
2023-02-12T21:27:42.737Z,99.90
2023-02-12T21:30:14.135Z,99.90
2023-02-12T21:32:48.347Z,99.90
2023-02-12T21:35:16.989Z,99.90
2023-02-12T21:37:49.714Z,99.90
2023-02-12T21:40:17.250Z,99.90
2023-02-12T21:42:44.398Z,99.90
2023-02-12T21:45:11.928Z,99.90
2023-02-12T21:47:44.467Z,99.90
2023-02-12T21:50:16.064Z,99.90
2023-02-12T21:52:44.799Z,99.90
2023-02-12T21:55:12.284Z,99.90
2023-02-12T22:00:24.706Z,99.90
2023-02-12T22:02:52.819Z,99.90
2023-02-12T22:05:23.466Z,99.90
2023-02-12T22:07:57.654Z,99.90
2023-02-12T22:13:24.542Z,99.90
2023-02-12T22:16:26.074Z,99.90
2023-02-12T22:19:03.575Z,99.90
2023-02-12T22:21:40.365Z,99.90
2023-02-12T22:24:23.010Z,99.90
2023-02-12T22:26:55.580Z,99.90
2023-02-12T22:29:24.260Z,99.90
2023-02-12T22:32:08.201Z,99.90
2023-02-12T22:34:36.496Z,99.90
2023-02-12T22:40:00.402Z,99.90
2023-02-12T22:42:29.628Z,99.90
2023-02-12T22:44:58.418Z,99.90
2023-02-12T22:47:26.280Z,99.90
2023-02-12T22:50:02.860Z,99.90
2023-02-12T22:52:39.832Z,99.90
2023-02-12T22:55:22.512Z,99.90
2023-02-12T22:58:02.210Z,99.90
2023-02-12T23:00:39.091Z,99.90
2023-02-12T23:03:11.603Z,99.90
2023-02-12T23:05:45.987Z,99.90
2023-02-12T23:11:02.811Z,99.90
2023-02-12T23:14:33.951Z,99.90
2023-02-12T23:18:11.096Z,99.90
2023-02-12T23:21:10.553Z,99.90
2023-02-12T23:24:07.385Z,99.90
2023-02-12T23:27:12.308Z,99.90
2023-02-12T23:29:48.031Z,99.90
2023-02-12T23:36:20.723Z,99.90
2023-02-12T23:49:05.872Z,99.90
2023-02-12T23:52:06.110Z,99.90
